Terminal Aerodrome Forecast
Issued by NWS Sterling, VA

Home | Current Version | Previous Version | Text Only | Print | Product List | Glossary On
Versions: 1 2 3 4 5 6 7 8 9 10 11 12 13 14 15 16 17 18 19 20 21 22 23 24
000
FTUS41 KLWX 102300
TAFBWI
TAF
KBWI 102337Z 1100/1206 09009KT 6SM -RA BR VCTS SCT020 BKN045CB
     FM110300 VRB03KT P6SM SCT050
     FM110900 VRB03KT 5SM BR SCT050
     FM111400 06007KT P6SM SCT050
     FM120200 12004KT P6SM SCT050=

USA.gov is the U.S. government's official web portal to all federal, state and local government web resources and services.